createdAt,value
2018-10-11T00:01:58.352Z,7.40
2018-10-11T00:04:27.395Z,7.93
2018-10-11T00:06:55.980Z,7.77
2018-10-11T00:09:24.513Z,8.03
2018-10-11T00:11:53.090Z,8.67
2018-10-11T00:14:21.623Z,11.10
2018-10-11T00:16:50.136Z,9.47
2018-10-11T00:19:18.668Z,9.00
2018-10-11T00:21:48.110Z,8.30
2018-10-11T00:24:16.741Z,8.67
2018-10-11T00:26:45.318Z,8.30
2018-10-11T00:29:14.800Z,8.07
2018-10-11T00:31:43.381Z,8.20
2018-10-11T00:34:11.916Z,7.57
2018-10-11T00:36:40.556Z,8.50
2018-10-11T00:39:09.225Z,8.07
2018-10-11T00:41:37.808Z,8.37
2018-10-11T00:44:06.483Z,8.70
2018-10-11T00:46:35.113Z,7.83
2018-10-11T00:49:03.756Z,6.97
2018-10-11T00:51:32.298Z,7.13
2018-10-11T00:54:00.950Z,7.33
2018-10-11T00:56:29.500Z,7.37
2018-10-11T00:59:00.175Z,7.43
2018-10-11T01:01:30.083Z,7.57
2018-10-11T01:03:58.625Z,7.87
2018-10-11T01:06:27.248Z,8.37
2018-10-11T01:08:55.788Z,8.23
2018-10-11T01:11:24.342Z,8.17
2018-10-11T01:13:52.928Z,8.33
2018-10-11T01:16:21.460Z,7.43
2018-10-11T01:18:49.987Z,7.60
2018-10-11T01:21:18.585Z,7.43
2018-10-11T01:23:47.187Z,6.90
2018-10-11T01:26:15.755Z,6.87
2018-10-11T01:28:49.815Z,7.33
2018-10-11T01:31:21.535Z,7.30
2018-10-11T01:33:51.769Z,7.67
2018-10-11T01:36:20.526Z,7.57
2018-10-11T01:38:51.222Z,7.73
2018-10-11T01:41:20.098Z,7.23
2018-10-11T01:43:48.683Z,7.67
2018-10-11T01:46:17.274Z,7.87
2018-10-11T01:48:45.873Z,8.20
2018-10-11T01:51:14.488Z,7.80
2018-10-11T01:53:43.080Z,8.13
2018-10-11T01:56:11.619Z,8.00
2018-10-11T01:58:40.298Z,7.03
2018-10-11T02:01:08.820Z,8.00
2018-10-11T02:03:37.368Z,7.80
2018-10-11T02:06:06.006Z,8.10
2018-10-11T02:08:34.604Z,7.60
2018-10-11T02:11:03.208Z,7.77
2018-10-11T02:13:31.743Z,7.87
2018-10-11T02:16:00.303Z,7.40
2018-10-11T02:18:28.847Z,8.00
2018-10-11T02:20:57.411Z,7.63
2018-10-11T02:23:25.998Z,7.20
2018-10-11T02:25:54.575Z,7.67
2018-10-11T02:28:23.128Z,7.00
2018-10-11T02:30:51.650Z,7.80
2018-10-11T02:33:20.190Z,7.60
2018-10-11T02:35:48.748Z,7.73
2018-10-11T02:38:17.290Z,7.80
2018-10-11T02:40:45.846Z,7.60
2018-10-11T02:43:14.441Z,7.33
2018-10-11T02:45:42.958Z,7.50
2018-10-11T02:48:11.494Z,7.77
2018-10-11T02:50:40.058Z,7.50
2018-10-11T02:53:08.608Z,7.50
2018-10-11T02:55:39.754Z,8.07
2018-10-11T02:58:25.068Z,7.70
2018-10-11T03:00:54.437Z,7.73
2018-10-11T03:03:26.308Z,7.70
2018-10-11T03:05:55.746Z,7.80
2018-10-11T03:08:25.958Z,8.13
2018-10-11T03:10:54.898Z,9.50
2018-10-11T03:13:23.787Z,8.20
2018-10-11T03:15:52.341Z,8.67
2018-10-11T03:18:20.936Z,9.00
2018-10-11T03:20:49.529Z,9.60
2018-10-11T03:23:18.293Z,8.57
2018-10-11T03:25:46.844Z,8.37
2018-10-11T03:28:16.523Z,7.50
2018-10-11T03:30:45.049Z,7.90
2018-10-11T03:33:14.329Z,8.00
2018-10-11T03:35:43.844Z,8.03
2018-10-11T03:38:12.701Z,8.53
2018-10-11T03:40:41.391Z,8.10
2018-10-11T03:43:09.926Z,7.93
2018-10-11T03:45:38.501Z,7.43
2018-10-11T03:48:07.951Z,8.17
2018-10-11T03:50:36.855Z,7.50
2018-10-11T03:53:05.479Z,7.77
2018-10-11T03:55:34.915Z,7.90
2018-10-11T03:58:03.769Z,8.20
2018-10-11T04:00:32.556Z,7.40
2018-10-11T04:03:01.138Z,8.23
2018-10-11T04:05:29.786Z,7.70
2018-10-11T04:07:58.356Z,7.90
2018-10-11T04:10:26.919Z,8.13
2018-10-11T04:12:55.473Z,8.33
2018-10-11T04:15:24.016Z,8.50
2018-10-11T04:17:53.731Z,8.37
2018-10-11T04:20:22.398Z,8.57
2018-10-11T04:22:50.939Z,9.07
2018-10-11T04:25:19.488Z,8.87
2018-10-11T04:27:48.046Z,8.83
2018-10-11T04:30:16.593Z,8.60
2018-10-11T04:32:45.146Z,8.73
2018-10-11T04:35:13.703Z,8.77
2018-10-11T04:37:42.256Z,8.90
2018-10-11T04:40:10.806Z,8.47
2018-10-11T04:42:44.993Z,8.40
2018-10-11T04:45:13.535Z,8.00
2018-10-11T04:47:42.096Z,8.20
2018-10-11T04:50:10.655Z,8.07
2018-10-11T04:52:39.223Z,8.47
2018-10-11T04:55:07.805Z,9.10
2018-10-11T04:57:36.388Z,9.03
2018-10-11T05:00:05.121Z,9.77
2018-10-11T05:02:33.712Z,9.50
2018-10-11T05:05:02.366Z,9.00
2018-10-11T05:07:30.991Z,9.50
2018-10-11T05:09:59.639Z,9.17
2018-10-11T05:12:28.340Z,8.97
2018-10-11T05:14:57.390Z,8.03
2018-10-11T05:17:26.276Z,8.87
2018-10-11T05:19:54.802Z,8.70
2018-10-11T05:22:23.377Z,9.57
2018-10-11T05:24:53.260Z,8.80
2018-10-11T05:27:27.573Z,9.57
2018-10-11T05:29:56.260Z,9.17
2018-10-11T05:32:25.026Z,9.23
2018-10-11T05:34:53.720Z,9.20
2018-10-11T05:37:22.326Z,9.50
2018-10-11T05:39:50.913Z,9.50
2018-10-11T05:42:19.832Z,9.87
2018-10-11T05:44:48.733Z,9.20
2018-10-11T05:47:17.485Z,9.30
2018-10-11T05:49:46.248Z,9.70
2018-10-11T05:52:15.058Z,9.50
2018-10-11T05:54:44.473Z,9.20
2018-10-11T05:57:13.130Z,9.07
2018-10-11T05:59:41.821Z,9.10
2018-10-11T06:02:10.635Z,9.07
2018-10-11T06:04:39.232Z,8.77
2018-10-11T06:07:07.980Z,8.73
2018-10-11T06:09:36.643Z,9.17
2018-10-11T06:12:05.436Z,10.10
2018-10-11T06:14:34.125Z,9.40
2018-10-11T06:17:02.990Z,9.53
2018-10-11T06:19:31.722Z,9.50
2018-10-11T06:22:00.421Z,9.33
2018-10-11T06:24:29.027Z,9.17
2018-10-11T06:26:57.790Z,9.03
2018-10-11T06:29:26.508Z,9.27
2018-10-11T06:31:55.294Z,9.40
2018-10-11T06:34:24.103Z,9.43
2018-10-11T06:36:52.848Z,9.47
2018-10-11T06:39:21.581Z,9.63
2018-10-11T06:41:50.187Z,10.33
2018-10-11T06:44:18.951Z,9.43
2018-10-11T06:46:48.523Z,9.40
2018-10-11T06:49:17.288Z,9.60
2018-10-11T06:51:46.090Z,9.80
2018-10-11T06:54:14.756Z,9.27
2018-10-11T06:56:43.303Z,9.33
2018-10-11T06:59:11.893Z,9.60
2018-10-11T07:01:40.489Z,9.03
2018-10-11T07:04:09.079Z,9.20
2018-10-11T07:06:37.766Z,10.00
2018-10-11T07:09:08.745Z,9.33
2018-10-11T07:11:37.296Z,8.70
2018-10-11T07:14:05.868Z,9.13
2018-10-11T07:16:34.476Z,11.37
2018-10-11T07:19:03.068Z,8.80
2018-10-11T07:21:31.658Z,9.13
2018-10-11T07:24:05.814Z,9.00
2018-10-11T07:26:40.198Z,9.60
2018-10-11T07:29:09.168Z,10.90
2018-10-11T07:31:37.734Z,8.97
2018-10-11T07:34:06.313Z,8.87
2018-10-11T07:36:34.863Z,9.50
2018-10-11T07:39:05.508Z,9.97
2018-10-11T07:41:34.076Z,9.60
2018-10-11T07:44:02.614Z,9.50
2018-10-11T07:46:31.213Z,11.03
2018-10-11T07:48:59.791Z,10.80
2018-10-11T07:51:28.362Z,10.60
2018-10-11T07:54:01.184Z,10.23
2018-10-11T07:56:31.216Z,11.13
2018-10-11T07:59:00.221Z,11.27
2018-10-11T08:01:29.721Z,10.43
2018-10-11T08:04:01.054Z,10.17
2018-10-11T08:06:29.591Z,10.63
2018-10-11T08:08:58.240Z,10.47
2018-10-11T08:14:29.756Z,10.90
2018-10-11T08:16:58.550Z,10.80
2018-10-11T08:19:39.678Z,11.50
2018-10-11T08:22:26.309Z,10.87
2018-10-11T08:24:56.272Z,11.60
2018-10-11T08:27:24.902Z,11.70
2018-10-11T08:29:53.519Z,11.77
2018-10-11T08:32:23.418Z,11.90
2018-10-11T08:34:52.026Z,10.93
2018-10-11T08:37:20.575Z,10.97
2018-10-11T08:39:49.138Z,10.67
2018-10-11T08:42:17.691Z,11.40
2018-10-11T08:44:46.258Z,11.30
2018-10-11T08:47:14.884Z,11.13
2018-10-11T08:49:43.452Z,11.90
2018-10-11T08:52:12.071Z,11.33
2018-10-11T08:54:48.611Z,11.53
2018-10-11T08:57:18.170Z,11.03
2018-10-11T08:59:46.879Z,12.17
2018-10-11T09:02:15.479Z,11.83
2018-10-11T09:04:44.450Z,12.40
2018-10-11T09:07:13.076Z,12.87
2018-10-11T09:09:42.131Z,12.43
2018-10-11T09:12:10.689Z,13.50
2018-10-11T09:14:39.279Z,12.60
2018-10-11T09:17:07.935Z,13.40
2018-10-11T09:19:36.641Z,13.03
2018-10-11T09:22:05.282Z,12.83
2018-10-11T09:24:33.886Z,12.93
2018-10-11T09:27:02.490Z,13.03
2018-10-11T09:29:31.151Z,13.00
2018-10-11T09:31:59.784Z,12.77
2018-10-11T09:34:28.454Z,14.00
2018-10-11T09:36:57.012Z,12.90
2018-10-11T09:39:25.614Z,13.07
2018-10-11T09:41:55.544Z,13.30
2018-10-11T09:44:29.904Z,14.13
2018-10-11T09:46:58.536Z,14.27
2018-10-11T09:49:27.207Z,13.70
2018-10-11T09:51:55.839Z,13.63
2018-10-11T09:54:24.475Z,14.10
2018-10-11T09:57:26.006Z,13.73
2018-10-11T09:59:54.938Z,14.37
2018-10-11T10:02:24.350Z,13.30
2018-10-11T10:04:54.463Z,13.50
2018-10-11T10:07:23.056Z,13.30
2018-10-11T10:09:51.690Z,12.53
2018-10-11T10:12:20.624Z,13.13
2018-10-11T10:14:54.836Z,12.57
2018-10-11T10:17:23.450Z,11.80
2018-10-11T10:19:52.071Z,11.63
2018-10-11T10:22:20.668Z,11.43
2018-10-11T10:24:49.292Z,10.73
2018-10-11T10:27:18.058Z,10.68
2018-10-11T10:29:47.116Z,9.60
2018-10-11T10:32:15.755Z,9.50
2018-10-11T10:34:44.333Z,9.30
2018-10-11T10:37:12.936Z,9.70
2018-10-11T10:39:41.601Z,9.68
2018-10-11T10:42:10.188Z,9.20
2018-10-11T10:44:38.753Z,9.03
2018-10-11T10:47:07.598Z,8.43
2018-10-11T10:49:36.151Z,9.45
2018-10-11T10:52:04.849Z,8.80
2018-10-11T10:54:34.548Z,9.53
2018-10-11T10:57:03.821Z,8.80
2018-10-11T10:59:32.470Z,8.88
2018-10-11T11:02:01.086Z,8.00
2018-10-11T11:04:30.338Z,7.90
2018-10-11T11:06:58.993Z,8.43
2018-10-11T11:09:27.635Z,8.40
2018-10-11T11:11:56.256Z,8.70
2018-10-11T11:14:24.821Z,8.38
2018-10-11T11:16:53.424Z,8.68
2018-10-11T11:19:22.135Z,8.18
2018-10-11T11:21:50.829Z,8.33
2018-10-11T11:24:19.404Z,9.00
2018-10-11T11:26:47.976Z,8.20
2018-10-11T11:29:16.513Z,8.00
2018-10-11T11:31:45.111Z,7.62
2018-10-11T11:34:13.786Z,8.48
2018-10-11T11:36:42.367Z,8.40
2018-10-11T11:39:10.923Z,8.50
2018-10-11T11:41:39.497Z,7.72
2018-10-11T11:44:08.131Z,8.78
2018-10-11T11:46:36.721Z,9.63
2018-10-11T11:49:05.379Z,9.65
2018-10-11T11:51:33.928Z,9.63
2018-10-11T11:54:02.640Z,9.10
2018-10-11T11:56:31.224Z,9.50
2018-10-11T11:58:59.859Z,9.23
2018-10-11T12:01:33.915Z,8.80
2018-10-11T12:04:02.618Z,10.27
2018-10-11T12:06:31.191Z,9.50
2018-10-11T12:08:59.756Z,10.27
2018-10-11T12:11:28.369Z,10.93
2018-10-11T12:13:56.962Z,11.43
2018-10-11T12:16:25.926Z,11.03
2018-10-11T12:18:55.547Z,11.53
2018-10-11T12:21:24.180Z,11.80
2018-10-11T12:23:52.927Z,11.60
2018-10-11T12:26:21.641Z,11.03
2018-10-11T12:28:50.579Z,12.07
2018-10-11T12:31:19.184Z,11.53
2018-10-11T12:33:48.284Z,10.93
2018-10-11T12:36:16.870Z,11.23
2018-10-11T12:38:46.148Z,11.63
2018-10-11T12:41:14.642Z,12.33
2018-10-11T12:43:43.341Z,12.33
2018-10-11T12:46:11.931Z,12.53
2018-10-11T12:48:41.127Z,12.57
2018-10-11T12:51:09.801Z,14.47
2018-10-11T12:53:42.248Z,12.37
2018-10-11T12:56:07.844Z,12.63
2018-10-11T12:58:36.544Z,13.00
2018-10-11T13:01:05.191Z,12.63
2018-10-11T13:03:33.835Z,11.93
2018-10-11T13:06:03.188Z,12.73
2018-10-11T13:08:37.521Z,13.93
2018-10-11T13:11:06.250Z,14.87
2018-10-11T13:13:34.927Z,11.90
2018-10-11T13:16:05.037Z,12.13
2018-10-11T13:18:32.277Z,12.83
2018-10-11T13:21:01.447Z,12.90
2018-10-11T13:23:30.121Z,12.90
2018-10-11T13:25:58.827Z,12.87
2018-10-11T13:28:27.419Z,13.57
2018-10-11T13:30:56.032Z,11.80
2018-10-11T13:33:24.613Z,12.97
2018-10-11T13:35:53.204Z,11.50
2018-10-11T13:38:21.819Z,11.50
2018-10-11T13:40:50.886Z,11.60
2018-10-11T13:43:19.698Z,11.27
2018-10-11T13:45:52.471Z,10.77
2018-10-11T13:48:16.963Z,10.27
2018-10-11T13:50:45.618Z,10.53
2018-10-11T13:53:17.020Z,11.67
2018-10-11T13:55:53.618Z,11.67
2018-10-11T13:58:16.819Z,11.40
2018-10-11T14:00:45.364Z,10.50
2018-10-11T14:03:13.908Z,10.93
2018-10-11T14:05:42.584Z,11.37
2018-10-11T14:08:16.726Z,11.50
2018-10-11T14:10:45.363Z,12.13
2018-10-11T14:13:15.774Z,11.87
2018-10-11T14:15:42.626Z,12.13
2018-10-11T14:18:12.729Z,11.77
2018-10-11T14:20:40.148Z,11.93
2018-10-11T14:23:08.748Z,13.37
2018-10-11T14:25:37.303Z,12.70
2018-10-11T14:28:06.052Z,13.80
2018-10-11T14:30:34.624Z,12.73
2018-10-11T14:33:03.238Z,11.83
2018-10-11T14:35:31.849Z,12.07
2018-10-11T14:38:00.434Z,12.67
2018-10-11T14:40:29.051Z,11.57
2018-10-11T14:42:57.606Z,12.17
2018-10-11T14:45:26.161Z,12.10
2018-10-11T14:47:54.751Z,11.80
2018-10-11T14:50:23.376Z,11.53
2018-10-11T14:52:51.986Z,12.13
2018-10-11T14:55:20.573Z,11.60
2018-10-11T14:57:49.166Z,11.87
2018-10-11T15:00:17.788Z,10.67
2018-10-11T15:02:46.434Z,12.43
2018-10-11T15:05:15.044Z,11.17
2018-10-11T15:07:43.759Z,11.17
2018-10-11T15:10:12.422Z,11.70
2018-10-11T15:12:40.978Z,12.13
2018-10-11T15:15:09.555Z,11.63
2018-10-11T15:17:38.125Z,11.57
2018-10-11T15:20:06.933Z,11.70
2018-10-11T15:22:35.550Z,11.43
2018-10-11T15:25:05.636Z,13.97
2018-10-11T15:27:34.702Z,13.53
2018-10-11T15:30:03.574Z,13.83
2018-10-11T15:56:27.760Z,20.30
2018-10-11T15:59:01.816Z,18.87
2018-10-11T16:01:30.482Z,24.30
2018-10-11T16:03:59.253Z,13.77
2018-10-11T16:06:28.177Z,12.80
2018-10-11T16:08:56.819Z,12.67
2018-10-11T16:11:25.584Z,14.10
2018-10-11T16:13:54.853Z,13.97
2018-10-11T16:16:23.420Z,14.30
2018-10-11T16:18:52.223Z,14.40
2018-10-11T16:21:26.350Z,14.17
2018-10-11T16:23:55.143Z,14.10
2018-10-11T16:26:23.861Z,15.30
2018-10-11T16:28:52.487Z,15.97
2018-10-11T16:31:21.931Z,15.40
2018-10-11T16:33:50.583Z,15.30
2018-10-11T16:36:19.255Z,19.33
2018-10-11T16:38:48.033Z,24.23
2018-10-11T16:41:16.603Z,20.43
2018-10-11T16:43:45.233Z,15.53
2018-10-11T16:46:13.891Z,15.47
2018-10-11T16:48:42.461Z,28.37
2018-10-11T16:51:11.429Z,20.97
2018-10-11T16:53:40.028Z,20.33
2018-10-11T16:56:08.661Z,17.60
2018-10-11T16:58:37.286Z,16.37
2018-10-11T17:01:06.136Z,16.67
2018-10-11T17:03:35.149Z,15.97
2018-10-11T17:06:03.915Z,18.73
2018-10-11T17:08:32.498Z,19.87
2018-10-11T17:11:01.221Z,18.77
2018-10-11T17:13:29.849Z,18.73
2018-10-11T17:15:58.465Z,18.77
2018-10-11T17:18:27.047Z,18.13
2018-10-11T17:20:55.723Z,20.20
2018-10-11T17:23:24.544Z,20.50
2018-10-11T17:25:53.267Z,20.77
2018-10-11T17:28:22.016Z,20.23
2018-10-11T17:30:50.698Z,18.33
2018-10-11T17:33:19.443Z,18.13
2018-10-11T17:35:48.079Z,18.03
2018-10-11T17:38:16.691Z,18.57
2018-10-11T17:40:45.283Z,17.57
2018-10-11T17:43:13.944Z,20.40
2018-10-11T17:45:42.528Z,21.23
2018-10-11T17:48:11.131Z,23.03
2018-10-11T17:50:39.779Z,22.87
2018-10-11T17:53:08.427Z,23.20
2018-10-11T17:55:36.968Z,22.57
2018-10-11T17:58:11.109Z,22.87
2018-10-11T18:00:39.811Z,18.93
2018-10-11T18:03:08.471Z,21.20
2018-10-11T18:05:42.771Z,21.17
2018-10-11T18:08:22.538Z,43.20
2018-10-11T18:10:51.191Z,21.10
2018-10-11T18:13:19.868Z,19.23
2018-10-11T18:15:48.581Z,14.97
2018-10-11T18:18:17.173Z,13.77
2018-10-11T18:20:46.364Z,12.03
2018-10-11T18:23:14.944Z,13.30
2018-10-11T18:25:43.636Z,13.20
2018-10-11T18:28:12.286Z,13.57
2018-10-11T18:30:40.881Z,12.50
2018-10-11T18:33:10.416Z,13.17
2018-10-11T18:35:39.522Z,13.00
2018-10-11T18:38:08.116Z,13.50
2018-10-11T18:40:38.175Z,13.93
2018-10-11T18:43:06.859Z,13.00
2018-10-11T18:45:35.537Z,14.77
2018-10-11T18:48:04.289Z,15.70
2018-10-11T18:50:38.456Z,14.77
2018-10-11T18:53:12.512Z,14.73
2018-10-11T18:55:46.769Z,15.50
2018-10-11T18:58:15.408Z,16.37
2018-10-11T19:00:44.059Z,16.47
2018-10-11T19:03:14.082Z,17.20
2018-10-11T19:05:42.813Z,16.63
2018-10-11T19:08:16.924Z,16.87
2018-10-11T19:10:51.064Z,16.43
2018-10-11T19:13:20.320Z,16.53
2018-10-11T19:15:50.057Z,14.90
2018-10-11T19:18:18.716Z,16.30
2018-10-11T19:20:48.435Z,17.43
2018-10-11T19:23:17.029Z,16.97
2018-10-11T19:25:45.726Z,17.40
2018-10-11T19:28:14.586Z,18.50
2018-10-11T19:30:45.217Z,17.83
2018-10-11T19:33:14.557Z,17.10
2018-10-11T19:35:44.090Z,15.67
2018-10-11T19:38:12.846Z,16.27
2018-10-11T19:40:47.218Z,16.33
2018-10-11T19:43:21.446Z,16.43
2018-10-11T19:45:50.314Z,16.97
2018-10-11T19:48:20.005Z,15.57
2018-10-11T19:50:48.614Z,17.10
2018-10-11T19:53:22.946Z,17.00
2018-10-11T19:55:51.962Z,16.70
2018-10-11T19:58:20.552Z,17.30
2018-10-11T20:00:49.784Z,19.53
2018-10-11T20:03:18.630Z,18.73
2018-10-11T20:05:47.244Z,17.47
2018-10-11T20:11:26.452Z,18.03
2018-10-11T20:13:55.219Z,19.07
2018-10-11T20:16:30.499Z,19.87
2018-10-11T20:19:08.093Z,19.07
2018-10-11T20:21:44.041Z,24.10
2018-10-11T20:24:12.961Z,23.57
2018-10-11T20:26:49.232Z,23.13
2018-10-11T20:29:23.026Z,22.07
2018-10-11T20:31:56.517Z,20.67
2018-10-11T20:34:25.709Z,22.00
2018-10-11T20:36:54.972Z,21.63
2018-10-11T20:39:24.135Z,22.13
2018-10-11T20:41:53.364Z,20.13
2018-10-11T20:44:27.984Z,17.77
2018-10-11T20:46:57.437Z,22.03
2018-10-11T20:49:27.507Z,21.57
2018-10-11T20:51:56.696Z,22.43
2018-10-11T20:54:31.230Z,25.37
2018-10-11T20:57:00.551Z,25.33
2018-10-11T20:59:53.989Z,27.27
2018-10-11T21:02:22.578Z,26.20
2018-10-11T21:04:51.211Z,23.47
2018-10-11T21:07:20.499Z,23.03
2018-10-11T21:09:49.093Z,23.57
2018-10-11T21:12:17.696Z,23.20
2018-10-11T21:14:46.331Z,24.93
2018-10-11T21:17:15.077Z,24.17
2018-10-11T21:19:44.318Z,24.23
2018-10-11T21:22:13.954Z,24.57
2018-10-11T21:24:42.579Z,24.60
2018-10-11T21:27:11.224Z,23.27
2018-10-11T21:29:39.984Z,23.73
2018-10-11T21:32:09.197Z,22.63
2018-10-11T21:34:37.828Z,22.20
2018-10-11T21:37:06.596Z,22.73
2018-10-11T21:39:35.164Z,21.93
2018-10-11T21:42:03.739Z,18.47
2018-10-11T21:44:32.339Z,19.37
2018-10-11T21:47:02.817Z,21.90
2018-10-11T21:49:31.834Z,20.37
2018-10-11T21:52:00.489Z,19.83
2018-10-11T21:54:29.096Z,20.73
2018-10-11T21:56:58.316Z,22.20
2018-10-11T21:59:26.951Z,22.60
2018-10-11T22:01:55.538Z,20.33
2018-10-11T22:04:24.144Z,21.93
2018-10-11T22:06:53.624Z,22.70
2018-10-11T22:09:22.244Z,24.13
2018-10-11T22:11:50.848Z,22.67
2018-10-11T22:14:20.198Z,23.37
2018-10-11T22:16:49.119Z,22.40
2018-10-11T22:19:17.709Z,22.73
2018-10-11T22:21:46.612Z,26.23
2018-10-11T22:24:15.183Z,23.67
2018-10-11T22:26:44.542Z,20.60
2018-10-11T22:29:13.164Z,20.30
2018-10-11T22:31:41.813Z,20.00
2018-10-11T22:34:10.419Z,19.27
2018-10-11T22:36:39.004Z,19.00
2018-10-11T22:39:09.913Z,19.43
2018-10-11T22:41:39.726Z,18.77
2018-10-11T22:44:09.198Z,18.73
2018-10-11T22:46:38.138Z,19.43
2018-10-11T22:49:07.151Z,20.03
2018-10-11T22:51:35.786Z,20.17
2018-10-11T22:54:04.891Z,20.03
2018-10-11T22:56:33.523Z,19.57
2018-10-11T22:59:02.209Z,20.43
2018-10-11T23:01:30.789Z,20.00
2018-10-11T23:03:59.433Z,19.80
2018-10-11T23:06:28.095Z,18.53
2018-10-11T23:08:56.621Z,17.63
2018-10-11T23:11:25.221Z,16.33
2018-10-11T23:13:53.793Z,16.23
2018-10-11T23:16:22.314Z,15.83
2018-10-11T23:18:50.916Z,15.97
2018-10-11T23:21:19.473Z,15.67
2018-10-11T23:23:48.029Z,15.37
2018-10-11T23:26:16.616Z,15.37
2018-10-11T23:28:45.189Z,15.60
2018-10-11T23:31:14.831Z,15.47
2018-10-11T23:33:43.501Z,15.73
2018-10-11T23:36:12.029Z,15.93
2018-10-11T23:38:42.286Z,17.27
2018-10-11T23:41:10.983Z,16.83
2018-10-11T23:43:39.588Z,15.60
2018-10-11T23:46:08.166Z,16.73
2018-10-11T23:48:36.778Z,16.43
2018-10-11T23:51:05.453Z,16.77
2018-10-11T23:53:34.130Z,17.47
2018-10-11T23:56:02.688Z,17.63
2018-10-11T23:58:31.303Z,18.70
